Time;durP1;ratioP1;P1;durP2;ratioP2;P2;SDS_P1;SDS_P2;PMS_P1;PMS_P2;Temp;Humidity;BMP_temperature;BMP_pressure;BME280_temperature;BME280_humidity;BME280_pressure;Samples;Min_cycle;Max_cycle;Signal;HPM_P1;HPM_P2
2022/02/14 00:02:26;;;;;;;7.50;5.07;;;4.30;99.90;;;;;;5092984;28;20460;-65
2022/02/14 00:04:54;;;;;;;7.33;5.03;;;4.30;99.90;;;;;;5093494;28;20442;-65
2022/02/14 00:07:21;;;;;;;7.90;6.30;;;4.30;99.90;;;;;;5093038;28;20707;-66
2022/02/14 00:09:48;;;;;;;8.13;5.10;;;4.30;99.90;;;;;;5093367;28;20466;-66
2022/02/14 00:12:15;;;;;;;8.97;6.67;;;4.30;99.90;;;;;;5093104;28;21008;-65
2022/02/14 00:14:42;;;;;;;6.97;4.57;;;4.40;99.90;;;;;;5092898;28;20503;-65
2022/02/14 00:17:09;;;;;;;7.80;5.47;;;4.40;99.90;;;;;;5092195;28;20453;-65
2022/02/14 00:19:35;;;;;;;7.37;5.03;;;4.40;99.90;;;;;;5092371;28;20494;-65
2022/02/14 00:22:04;;;;;;;10.27;5.30;;;4.50;99.90;;;;;;5092438;28;20445;-65
2022/02/14 00:24:31;;;;;;;8.17;5.10;;;4.50;99.90;;;;;;5092340;28;20445;-65
2022/02/14 00:26:58;;;;;;;6.67;4.97;;;4.50;99.90;;;;;;5092038;28;20453;-65
2022/02/14 00:29:25;;;;;;;7.27;4.83;;;4.50;99.90;;;;;;5091918;28;20510;-65
2022/02/14 00:31:52;;;;;;;6.20;4.73;;;4.50;99.90;;;;;;5092283;28;20438;-65
2022/02/14 00:34:19;;;;;;;7.50;5.60;;;4.60;99.90;;;;;;5091065;28;20446;-66
2022/02/14 00:36:46;;;;;;;6.00;4.40;;;4.60;99.90;;;;;;5092411;28;20452;-65
2022/02/14 00:39:14;;;;;;;6.70;4.20;;;4.60;99.90;;;;;;5091654;28;20493;-65
2022/02/14 00:41:41;;;;;;;7.83;5.30;;;4.70;99.90;;;;;;5092009;28;20454;-65
2022/02/14 00:44:08;;;;;;;7.53;5.20;;;4.70;99.90;;;;;;5092043;28;20444;-65
2022/02/14 00:46:34;;;;;;;7.40;4.80;;;4.70;99.90;;;;;;5092352;28;20982;-65
2022/02/14 00:49:02;;;;;;;8.23;4.73;;;4.80;99.90;;;;;;5091786;28;20458;-65
2022/02/14 00:51:29;;;;;;;7.33;4.90;;;4.80;99.90;;;;;;5092290;28;20503;-65
2022/02/14 00:53:55;;;;;;;6.97;5.53;;;4.80;99.90;;;;;;5091891;28;20454;-65
2022/02/14 00:56:24;;;;;;;6.73;5.07;;;4.90;99.90;;;;;;5091801;28;20528;-65
2022/02/14 00:58:51;;;;;;;8.20;5.23;;;4.90;99.90;;;;;;5091372;28;20482;-65
2022/02/14 01:01:17;;;;;;;6.60;4.70;;;5.00;99.90;;;;;;5091574;28;20442;-65
2022/02/14 01:03:44;;;;;;;7.07;4.77;;;5.10;99.90;;;;;;5091831;28;20443;-65
2022/02/14 01:06:12;;;;;;;5.97;4.20;;;5.20;99.90;;;;;;5091685;28;20438;-66
2022/02/14 01:08:39;;;;;;;6.50;4.40;;;5.20;99.90;;;;;;5091122;28;20553;-65
2022/02/14 01:11:06;;;;;;;5.90;5.00;;;5.30;99.90;;;;;;5091783;28;20453;-65
2022/02/14 01:13:34;;;;;;;5.00;3.90;;;5.30;99.90;;;;;;5091462;28;20438;-65
2022/02/14 01:16:01;;;;;;;8.30;4.37;;;5.30;99.90;;;;;;5091487;28;20438;-66
2022/02/14 01:18:28;;;;;;;8.60;4.90;;;5.40;99.90;;;;;;5091380;28;20541;-66
2022/02/14 01:20:55;;;;;;;6.30;4.80;;;5.50;99.90;;;;;;5091436;28;21041;-65
2022/02/14 01:23:22;;;;;;;6.63;4.50;;;5.60;99.90;;;;;;5091650;28;20473;-65
2022/02/14 01:25:48;;;;;;;6.00;4.23;;;5.60;99.90;;;;;;5091881;28;20442;-65
2022/02/14 01:28:15;;;;;;;4.63;3.90;;;5.60;99.90;;;;;;5091609;28;20446;-65
2022/02/14 01:30:43;;;;;;;7.30;4.10;;;5.60;99.90;;;;;;5092246;28;20442;-66
2022/02/14 01:33:10;;;;;;;4.67;4.07;;;5.60;99.90;;;;;;5092593;28;20947;-66
2022/02/14 01:35:37;;;;;;;8.73;4.30;;;5.60;99.90;;;;;;5092655;28;20438;-66
2022/02/14 01:38:04;;;;;;;7.70;4.03;;;5.60;99.90;;;;;;5090587;28;20644;-65
2022/02/14 01:40:32;;;;;;;6.30;4.10;;;5.60;99.90;;;;;;5091173;28;20482;-65
2022/02/14 01:42:59;;;;;;;8.33;4.30;;;5.70;99.90;;;;;;5091179;28;20457;-66
2022/02/14 01:45:26;;;;;;;5.33;3.93;;;5.70;99.90;;;;;;5091424;28;20460;-66
2022/02/14 01:47:54;;;;;;;6.53;4.53;;;5.80;99.90;;;;;;5091019;28;20525;-65
2022/02/14 01:50:21;;;;;;;5.90;3.80;;;5.80;99.90;;;;;;5091104;28;20552;-66
2022/02/14 01:52:48;;;;;;;6.43;4.80;;;5.90;99.90;;;;;;5090985;28;20454;-66
2022/02/14 01:55:16;;;;;;;4.50;3.80;;;5.90;99.90;;;;;;5091398;28;20542;-66
2022/02/14 01:57:43;;;;;;;5.00;4.03;;;5.90;99.90;;;;;;5090707;28;20475;-66
2022/02/14 02:00:13;;;;;;;5.63;4.20;;;5.90;99.90;;;;;;5090800;28;20486;-66
2022/02/14 02:02:39;;;;;;;6.27;4.27;;;5.90;99.90;;;;;;5090924;28;20931;-65
2022/02/14 02:05:09;;;;;;;5.80;3.80;;;5.90;99.90;;;;;;5090633;28;20442;-65
2022/02/14 02:07:36;;;;;;;5.13;3.77;;;5.90;99.90;;;;;;5090672;28;20460;-66
2022/02/14 02:10:05;;;;;;;6.13;4.60;;;6.00;99.90;;;;;;5090565;28;20459;-65
2022/02/14 02:12:32;;;;;;;5.30;3.80;;;6.00;99.90;;;;;;5090477;28;20448;-67
2022/02/14 02:15:00;;;;;;;5.70;3.70;;;6.00;99.90;;;;;;5090475;28;20504;-66
2022/02/14 02:17:31;;;;;;;4.50;3.40;;;6.00;99.90;;;;;;5090150;28;20823;-66
2022/02/14 02:19:58;;;;;;;4.70;3.43;;;6.00;99.90;;;;;;5090497;28;20488;-66
2022/02/14 02:22:27;;;;;;;4.47;3.43;;;6.00;99.60;;;;;;5090404;28;20445;-65
2022/02/14 02:24:56;;;;;;;6.83;3.20;;;6.10;99.40;;;;;;5090387;28;20453;-65
2022/02/14 02:27:25;;;;;;;5.90;4.00;;;6.10;99.30;;;;;;5090053;28;20452;-65
2022/02/14 02:29:52;;;;;;;5.03;3.20;;;6.10;99.60;;;;;;5090194;28;20466;-64
2022/02/14 02:32:19;;;;;;;4.30;3.30;;;6.10;99.40;;;;;;5090160;28;20544;-65
2022/02/14 02:34:46;;;;;;;4.00;3.60;;;6.10;98.80;;;;;;5090502;28;20438;-66
2022/02/14 02:37:15;;;;;;;5.30;3.50;;;6.10;99.30;;;;;;5090137;28;20526;-65
2022/02/14 02:39:43;;;;;;;6.73;3.87;;;6.10;98.80;;;;;;5090314;28;20472;-65
2022/02/14 02:42:13;;;;;;;5.80;3.30;;;6.10;99.50;;;;;;5090362;28;20468;-66
2022/02/14 02:44:42;;;;;;;5.60;3.47;;;6.20;98.90;;;;;;5090461;28;20469;-66
2022/02/14 02:47:11;;;;;;;5.27;3.77;;;6.20;99.50;;;;;;5090931;28;20443;-65
2022/02/14 02:49:39;;;;;;;5.27;3.40;;;6.20;99.00;;;;;;5090107;28;20542;-67
2022/02/14 02:52:07;;;;;;;4.30;2.93;;;6.10;98.70;;;;;;5090341;28;20446;-66
2022/02/14 02:54:35;;;;;;;6.03;3.90;;;6.20;98.10;;;;;;5090047;28;20986;-66
2022/02/14 02:57:02;;;;;;;5.63;3.40;;;6.20;98.20;;;;;;5090451;28;20441;-65
2022/02/14 02:59:33;;;;;;;5.50;3.47;;;6.20;97.30;;;;;;5094045;28;20489;-66
2022/02/14 03:02:00;;;;;;;5.93;3.47;;;6.20;97.60;;;;;;5094296;28;20446;-66
2022/02/14 03:04:27;;;;;;;4.63;3.40;;;6.20;97.90;;;;;;5093859;28;20966;-65
2022/02/14 03:06:54;;;;;;;5.93;3.10;;;6.20;98.20;;;;;;5094108;28;20473;-66
2022/02/14 03:09:21;;;;;;;5.30;3.30;;;6.10;98.20;;;;;;5094097;28;20527;-65
2022/02/14 03:11:48;;;;;;;4.43;2.90;;;6.10;98.90;;;;;;5093728;28;20548;-66
2022/02/14 03:14:15;;;;;;;6.97;3.60;;;6.10;97.90;;;;;;5093821;28;20446;-66
2022/02/14 03:16:44;;;;;;;6.90;3.20;;;6.10;98.00;;;;;;5094022;28;20445;-65
2022/02/14 03:19:12;;;;;;;4.73;2.63;;;6.20;97.40;;;;;;5093765;28;20476;-65
2022/02/14 03:21:39;;;;;;;5.90;3.23;;;6.20;97.70;;;;;;5093931;28;20823;-65
2022/02/14 03:24:07;;;;;;;4.70;3.43;;;6.10;97.60;;;;;;5093798;28;20434;-65
2022/02/14 03:26:34;;;;;;;4.03;2.60;;;6.20;97.80;;;;;;5093566;28;20446;-65
2022/02/14 03:29:01;;;;;;;4.90;2.90;;;6.20;97.80;;;;;;5093525;28;20478;-66
2022/02/14 03:31:28;;;;;;;5.17;3.07;;;6.20;98.00;;;;;;5093731;28;20437;-65
2022/02/14 03:33:56;;;;;;;5.43;3.27;;;6.20;97.50;;;;;;5093554;28;20450;-66
2022/02/14 03:36:24;;;;;;;3.70;3.00;;;6.10;97.10;;;;;;5093473;28;20529;-66
2022/02/14 03:38:51;;;;;;;4.43;2.80;;;6.10;96.50;;;;;;5092820;28;20553;-65
2022/02/14 03:41:19;;;;;;;5.00;2.97;;;6.20;96.80;;;;;;5093184;28;20473;-65
2022/02/14 03:43:46;;;;;;;7.07;3.80;;;6.20;96.50;;;;;;5093046;28;20446;-66
2022/02/14 03:46:13;;;;;;;3.90;2.97;;;6.20;96.80;;;;;;5093546;28;20909;-65
2022/02/14 03:48:39;;;;;;;4.70;3.10;;;6.20;96.30;;;;;;5093190;28;20469;-66
2022/02/14 03:51:08;;;;;;;4.33;2.93;;;6.10;96.30;;;;;;5093541;28;20442;-65
2022/02/14 03:53:34;;;;;;;4.07;2.60;;;6.10;95.90;;;;;;5093432;28;20557;-66
2022/02/14 03:56:01;;;;;;;6.20;3.00;;;6.00;96.30;;;;;;5093301;28;20473;-65
2022/02/14 03:58:28;;;;;;;4.77;2.80;;;6.00;96.30;;;;;;5093163;28;20545;-65
2022/02/14 04:00:55;;;;;;;5.13;2.83;;;6.00;96.10;;;;;;5093638;28;20482;-65
2022/02/14 04:03:22;;;;;;;5.47;3.17;;;5.90;96.70;;;;;;5093559;28;20458;-65
2022/02/14 04:05:49;;;;;;;4.70;2.70;;;5.80;96.40;;;;;;5093722;28;20445;-65
2022/02/14 04:08:17;;;;;;;6.63;2.83;;;5.60;97.20;;;;;;5092000;28;20878;-65
2022/02/14 04:10:44;;;;;;;4.30;2.90;;;5.40;97.50;;;;;;5092499;28;20477;-66
2022/02/14 04:13:11;;;;;;;5.00;3.07;;;5.30;98.10;;;;;;5093293;28;20533;-67
2022/02/14 04:15:38;;;;;;;4.50;3.57;;;5.10;98.90;;;;;;5092737;28;20525;-65
2022/02/14 04:18:05;;;;;;;3.90;2.93;;;5.00;98.60;;;;;;5092482;28;20454;-65
2022/02/14 04:20:32;;;;;;;4.83;2.90;;;4.90;99.00;;;;;;5092436;28;21002;-66
2022/02/14 04:22:59;;;;;;;3.67;2.63;;;4.80;99.00;;;;;;5092849;28;20450;-66
2022/02/14 04:25:27;;;;;;;4.40;2.90;;;4.80;98.50;;;;;;5092685;28;20537;-66
2022/02/14 04:27:55;;;;;;;4.43;2.87;;;4.70;99.40;;;;;;5091965;28;20524;-65
2022/02/14 04:30:24;;;;;;;4.60;2.60;;;4.60;99.10;;;;;;5092374;28;20462;-65
2022/02/14 04:32:53;;;;;;;4.57;3.40;;;4.50;99.90;;;;;;5092282;28;20873;-65
2022/02/14 04:35:19;;;;;;;6.53;2.90;;;4.40;99.30;;;;;;5092303;28;20511;-66
2022/02/14 04:37:46;;;;;;;5.57;2.83;;;4.20;99.90;;;;;;5092064;28;20940;-66
2022/02/14 04:40:13;;;;;;;5.70;3.10;;;4.20;99.90;;;;;;5092757;28;20486;-66
2022/02/14 04:42:42;;;;;;;4.10;3.07;;;4.10;99.90;;;;;;5093167;28;20445;-65
2022/02/14 04:45:09;;;;;;;4.90;2.80;;;4.10;99.80;;;;;;5093075;28;20537;-65
2022/02/14 04:47:36;;;;;;;5.90;2.90;;;4.00;99.90;;;;;;5092702;28;20438;-67
2022/02/14 04:50:04;;;;;;;6.27;3.50;;;4.00;99.90;;;;;;5092890;28;20516;-66
2022/02/14 04:52:31;;;;;;;4.37;3.10;;;4.00;99.90;;;;;;5092575;28;20587;-65
2022/02/14 04:54:58;;;;;;;5.40;3.27;;;4.10;99.90;;;;;;5092276;28;20567;-65
2022/02/14 04:57:24;;;;;;;4.43;2.93;;;4.20;99.90;;;;;;5091914;28;20481;-65
2022/02/14 04:59:53;;;;;;;8.20;3.47;;;4.10;99.90;;;;;;5091564;28;20474;-65
2022/02/14 05:02:19;;;;;;;4.20;2.90;;;4.10;99.90;;;;;;5091803;28;20438;-65
2022/02/14 05:04:46;;;;;;;7.77;3.10;;;4.10;99.90;;;;;;5091956;28;20446;-65
2022/02/14 05:07:13;;;;;;;3.60;2.83;;;4.10;99.90;;;;;;5091592;28;20526;-65
2022/02/14 05:09:40;;;;;;;5.70;3.40;;;4.20;99.90;;;;;;5091811;28;20482;-65
2022/02/14 05:12:07;;;;;;;6.70;3.20;;;4.20;99.90;;;;;;5091800;28;20441;-65
2022/02/14 05:14:35;;;;;;;3.60;2.50;;;4.20;99.90;;;;;;5091741;28;20446;-65
2022/02/14 05:17:03;;;;;;;4.47;2.93;;;4.20;99.90;;;;;;5091359;28;20835;-65
2022/02/14 05:19:30;;;;;;;5.37;3.00;;;4.10;99.90;;;;;;5090794;28;20462;-65
2022/02/14 05:21:57;;;;;;;5.30;2.80;;;4.20;99.90;;;;;;5091028;28;20573;-66
2022/02/14 05:24:24;;;;;;;7.40;2.60;;;4.20;99.90;;;;;;5090923;28;20442;-66
2022/02/14 05:26:50;;;;;;;4.43;2.50;;;4.20;99.90;;;;;;5091108;28;20834;-65
2022/02/14 05:29:17;;;;;;;4.00;2.60;;;4.20;99.80;;;;;;5090742;28;21051;-66
2022/02/14 05:31:44;;;;;;;4.77;2.80;;;4.20;99.90;;;;;;5091339;28;20438;-66
2022/02/14 05:34:12;;;;;;;4.37;2.80;;;4.10;99.30;;;;;;5091259;28;20450;-68
2022/02/14 05:36:41;;;;;;;6.07;2.87;;;4.10;99.70;;;;;;5091035;28;20525;-66
2022/02/14 05:39:09;;;;;;;3.77;2.63;;;4.10;99.90;;;;;;5090935;28;20470;-64
2022/02/14 05:41:36;;;;;;;4.70;2.87;;;3.90;99.90;;;;;;5091071;28;20486;-65
2022/02/14 05:44:04;;;;;;;4.93;2.60;;;3.90;99.90;;;;;;5091119;28;20821;-65
2022/02/14 05:46:31;;;;;;;4.47;2.73;;;3.90;99.90;;;;;;5092711;28;20462;-65
2022/02/14 05:48:58;;;;;;;4.40;2.80;;;3.90;99.90;;;;;;5091592;28;20466;-65
2022/02/14 05:51:26;;;;;;;6.37;3.60;;;3.90;99.90;;;;;;5092164;28;20442;-65
2022/02/14 05:53:53;;;;;;;4.70;2.87;;;3.90;99.80;;;;;;5091509;28;20454;-65
2022/02/14 05:56:20;;;;;;;4.10;3.10;;;3.90;99.20;;;;;;5091114;28;20454;-65
2022/02/14 05:58:47;;;;;;;6.00;3.33;;;4.00;99.70;;;;;;5090687;28;20547;-65
2022/02/14 06:01:15;;;;;;;4.53;3.30;;;4.00;99.10;;;;;;5091147;28;20639;-65
2022/02/14 06:03:42;;;;;;;7.17;3.80;;;4.10;99.50;;;;;;5089697;28;20576;-66
2022/02/14 06:06:09;;;;;;;5.43;3.00;;;4.20;99.30;;;;;;5084477;28;20439;-66
2022/02/14 06:08:37;;;;;;;6.40;3.23;;;4.30;99.10;;;;;;5091355;28;20549;-65
2022/02/14 06:11:04;;;;;;;5.00;3.10;;;4.30;99.30;;;;;;5091136;28;20438;-65
2022/02/14 06:13:31;;;;;;;8.60;3.60;;;4.40;98.90;;;;;;5095749;28;20953;-65
2022/02/14 06:15:58;;;;;;;5.60;3.33;;;4.40;99.50;;;;;;5091121;28;20449;-65
2022/02/14 06:18:25;;;;;;;6.30;3.50;;;4.50;99.20;;;;;;5091113;28;20466;-67
2022/02/14 06:20:52;;;;;;;4.60;2.97;;;4.60;98.70;;;;;;5089658;28;20532;-64
2022/02/14 06:23:19;;;;;;;5.37;3.30;;;4.70;98.60;;;;;;5084852;28;20529;-65
2022/02/14 06:25:47;;;;;;;5.73;3.43;;;4.80;98.30;;;;;;5089629;28;20446;-64
2022/02/14 06:28:14;;;;;;;8.13;3.60;;;4.90;97.90;;;;;;5087407;28;20458;-63
2022/02/14 06:30:45;;;;;;;4.93;3.33;;;4.90;98.20;;;;;;5088764;28;20537;-64
2022/02/14 06:33:12;;;;;;;4.93;3.10;;;4.90;97.90;;;;;;5082588;28;20447;-64
2022/02/14 06:35:39;;;;;;;3.70;3.00;;;5.00;98.00;;;;;;5084967;28;20446;-64
2022/02/14 06:38:06;;;;;;;8.63;3.53;;;5.00;97.90;;;;;;5088595;28;20446;-64
2022/02/14 06:40:33;;;;;;;5.97;3.63;;;5.00;98.30;;;;;;5086392;28;20482;-65
2022/02/14 06:43:01;;;;;;;6.80;3.90;;;5.00;98.60;;;;;;5089381;28;20465;-65
2022/02/14 06:45:28;;;;;;;9.47;4.03;;;5.10;98.00;;;;;;5091077;28;20525;-64
2022/02/14 06:47:55;;;;;;;5.97;3.27;;;5.00;98.70;;;;;;5088604;28;20523;-65
2022/02/14 06:50:22;;;;;;;5.20;3.50;;;5.00;99.10;;;;;;5084582;28;20541;-64
2022/02/14 06:52:48;;;;;;;6.70;3.60;;;4.90;98.50;;;;;;5090250;28;20446;-65
2022/02/14 06:55:16;;;;;;;6.80;3.07;;;4.90;97.80;;;;;;5087673;28;20966;-66
2022/02/14 06:57:43;;;;;;;4.13;3.50;;;4.90;97.60;;;;;;5093588;28;20449;-66
2022/02/14 07:00:14;;;;;;;6.40;3.53;;;4.90;97.50;;;;;;5090239;28;20565;-68
2022/02/14 07:02:41;;;;;;;7.30;3.67;;;4.90;98.30;;;;;;5091011;28;20914;-66
2022/02/14 07:05:11;;;;;;;5.57;3.37;;;5.00;97.70;;;;;;5090913;28;20485;-66
2022/02/14 07:07:38;;;;;;;5.40;3.13;;;5.00;97.70;;;;;;5090360;28;20478;-65
2022/02/14 07:10:07;;;;;;;5.70;3.50;;;5.00;97.70;;;;;;5089929;28;21170;-66
2022/02/14 07:12:34;;;;;;;5.37;3.40;;;4.90;97.80;;;;;;5090494;28;20450;-65
2022/02/14 07:15:01;;;;;;;9.03;3.50;;;4.90;98.20;;;;;;5089262;28;20465;-67
2022/02/14 07:17:29;;;;;;;6.80;3.33;;;4.90;98.30;;;;;;5073077;28;20478;-65
2022/02/14 07:19:56;;;;;;;5.50;3.27;;;5.00;97.80;;;;;;5088351;28;20462;-66
2022/02/14 07:22:23;;;;;;;5.60;2.90;;;5.00;98.20;;;;;;5091093;28;20546;-65
2022/02/14 07:24:49;;;;;;;5.20;2.93;;;4.90;98.10;;;;;;5094233;28;20442;-67
2022/02/14 07:27:16;;;;;;;4.10;3.07;;;4.80;98.80;;;;;;5091195;28;20434;-67
2022/02/14 07:29:43;;;;;;;5.60;3.30;;;4.70;99.10;;;;;;5088223;28;20468;-66
2022/02/14 07:32:10;;;;;;;4.70;3.30;;;4.60;99.70;;;;;;5088631;28;20921;-65
2022/02/14 07:34:38;;;;;;;6.03;3.50;;;4.50;99.90;;;;;;5091447;28;20450;-65
2022/02/14 07:37:06;;;;;;;6.33;3.47;;;4.50;99.90;;;;;;5083528;28;20458;-65
2022/02/14 07:39:34;;;;;;;8.77;3.63;;;4.60;99.60;;;;;;5072332;28;20493;-66
2022/02/14 07:42:02;;;;;;;5.80;3.73;;;4.60;99.90;;;;;;5069615;28;21037;-64
2022/02/14 07:44:29;;;;;;;8.73;3.63;;;4.60;99.70;;;;;;5072533;28;20442;-65
2022/02/14 07:46:56;;;;;;;4.93;3.50;;;4.70;99.40;;;;;;5073957;28;20455;-63
2022/02/14 07:49:24;;;;;;;6.07;3.83;;;4.80;99.20;;;;;;5076084;28;20517;-65
2022/02/14 07:51:52;;;;;;;4.53;2.60;;;4.90;99.90;;;;;;5074809;28;20445;-65
2022/02/14 07:54:19;;;;;;;3.40;2.53;;;5.00;98.30;;;;;;5074284;28;20553;-65
2022/02/14 07:56:46;;;;;;;6.53;3.67;;;5.10;97.70;;;;;;5073640;28;20451;-65
2022/02/14 07:59:12;;;;;;;8.17;2.93;;;5.40;97.90;;;;;;5073519;28;20466;-65
2022/02/14 08:01:40;;;;;;;4.83;3.37;;;5.50;97.30;;;;;;5074079;28;20482;-64
2022/02/14 08:04:07;;;;;;;5.93;3.27;;;5.70;96.60;;;;;;5079507;28;20451;-64
2022/02/14 08:06:35;;;;;;;4.17;2.90;;;5.80;97.10;;;;;;5082595;28;20467;-64
2022/02/14 08:09:04;;;;;;;5.57;3.47;;;5.90;97.40;;;;;;5081942;28;20530;-65
2022/02/14 08:11:31;;;;;;;5.67;2.97;;;6.20;96.30;;;;;;5082802;28;20538;-65
2022/02/14 08:13:58;;;;;;;8.27;3.97;;;6.30;96.60;;;;;;5082441;28;20533;-65
2022/02/14 08:16:25;;;;;;;9.50;3.47;;;6.60;96.10;;;;;;5076728;28;20517;-65
2022/02/14 08:18:52;;;;;;;5.20;3.40;;;6.80;96.20;;;;;;5072043;28;20502;-65
2022/02/14 08:21:20;;;;;;;3.77;2.90;;;7.10;96.40;;;;;;5072174;28;20992;-65
2022/02/14 08:23:47;;;;;;;3.60;2.80;;;7.30;95.40;;;;;;5072068;28;20964;-65
2022/02/14 08:26:15;;;;;;;3.50;2.53;;;7.50;94.60;;;;;;5072036;28;20439;-65
2022/02/14 08:28:42;;;;;;;5.37;2.77;;;7.70;93.70;;;;;;5071509;28;20471;-65
2022/02/14 08:31:08;;;;;;;3.53;2.93;;;7.80;94.00;;;;;;5071799;28;20439;-65
2022/02/14 08:33:35;;;;;;;7.53;3.83;;;8.00;94.40;;;;;;5071948;28;20447;-64
2022/02/14 08:36:03;;;;;;;8.33;3.83;;;8.30;95.50;;;;;;5071823;28;20478;-65
2022/02/14 08:38:31;;;;;;;5.93;4.33;;;8.50;95.80;;;;;;5071322;28;20479;-66
2022/02/14 08:40:58;;;;;;;8.37;3.70;;;8.60;95.40;;;;;;5071326;28;20447;-66
2022/02/14 08:43:26;;;;;;;5.13;3.10;;;8.80;94.70;;;;;;5071617;28;20449;-63
2022/02/14 08:45:53;;;;;;;6.90;3.40;;;9.10;94.40;;;;;;5071586;28;20451;-64
2022/02/14 08:48:20;;;;;;;7.10;3.43;;;9.40;93.40;;;;;;5071146;28;20453;-66
2022/02/14 08:50:49;;;;;;;5.30;3.00;;;9.70;93.40;;;;;;5071546;28;20453;-64
2022/02/14 08:53:17;;;;;;;5.77;3.57;;;10.10;92.50;;;;;;5071311;28;20459;-63
2022/02/14 08:55:44;;;;;;;7.17;3.80;;;10.50;92.90;;;;;;5070375;28;20451;-65
2022/02/14 08:58:11;;;;;;;5.27;2.97;;;10.70;91.70;;;;;;5071148;28;20451;-66
2022/02/14 09:00:40;;;;;;;4.60;3.00;;;11.10;90.00;;;;;;5071511;28;20447;-66
2022/02/14 09:03:06;;;;;;;4.97;3.20;;;11.30;90.00;;;;;;5071239;28;20497;-66
2022/02/14 09:05:33;;;;;;;6.10;2.90;;;11.60;88.90;;;;;;5071178;28;20455;-65
2022/02/14 09:08:00;;;;;;;5.47;4.60;;;12.00;88.50;;;;;;5070648;28;20457;-65
2022/02/14 09:10:27;;;;;;;6.20;3.00;;;12.50;85.30;;;;;;5071013;28;20447;-65
2022/02/14 09:12:54;;;;;;;6.27;3.10;;;12.90;84.00;;;;;;5071183;28;20849;-65
2022/02/14 09:15:21;;;;;;;4.40;2.80;;;13.20;82.20;;;;;;5071096;28;20538;-65
2022/02/14 09:17:49;;;;;;;4.53;2.67;;;13.20;83.30;;;;;;5070629;28;20455;-65
2022/02/14 09:20:22;;;;;;;8.30;2.60;;;13.20;82.40;;;;;;5071043;28;20471;-65
2022/02/14 09:22:49;;;;;;;3.90;2.37;;;13.80;81.80;;;;;;5070810;28;20976;-66
2022/02/14 09:25:16;;;;;;;6.57;2.90;;;14.10;81.30;;;;;;5072029;28;20910;-66
2022/02/14 09:27:43;;;;;;;5.70;2.70;;;14.10;81.40;;;;;;5072506;28;20478;-64
2022/02/14 09:30:11;;;;;;;5.80;3.60;;;13.90;78.60;;;;;;5071140;28;20474;-66
2022/02/14 09:32:38;;;;;;;5.23;2.70;;;13.70;78.90;;;;;;5071568;28;20446;-64
2022/02/14 09:35:07;;;;;;;10.07;3.47;;;13.40;81.30;;;;;;5071757;28;20546;-66
2022/02/14 09:37:34;;;;;;;5.53;3.27;;;13.30;82.30;;;;;;5071122;28;20546;-66
2022/02/14 09:40:03;;;;;;;6.33;3.20;;;13.10;82.30;;;;;;5070797;28;20471;-66
2022/02/14 09:42:29;;;;;;;7.27;3.80;;;12.70;82.70;;;;;;5070892;28;20487;-64
2022/02/14 09:44:57;;;;;;;8.37;3.50;;;12.50;83.70;;;;;;5070851;28;20436;-64
2022/02/14 09:47:25;;;;;;;10.03;4.80;;;12.50;84.30;;;;;;5070037;28;20443;-65
2022/02/14 09:49:54;;;;;;;8.10;3.10;;;12.60;83.90;;;;;;5070115;28;20479;-65
2022/02/14 09:52:22;;;;;;;6.40;3.27;;;12.60;85.00;;;;;;5070507;28;20531;-65
2022/02/14 09:54:49;;;;;;;7.13;3.23;;;12.60;84.60;;;;;;5070286;28;20455;-66
2022/02/14 09:57:18;;;;;;;8.27;2.90;;;12.60;85.30;;;;;;5070619;28;20461;-67
2022/02/14 09:59:44;;;;;;;9.03;3.57;;;12.70;85.90;;;;;;5070281;28;20486;-67
2022/02/14 10:02:24;;;;;;;6.13;3.20;;;12.50;85.40;;;;;;5070138;28;20486;-65
2022/02/14 10:05:01;;;;;;;5.73;2.80;;;12.60;85.70;;;;;;5070394;28;20458;-65
2022/02/14 10:07:43;;;;;;;6.13;2.67;;;12.50;86.30;;;;;;5069889;28;20545;-65
2022/02/14 10:10:16;;;;;;;5.63;2.90;;;12.40;87.10;;;;;;5070348;28;20467;-65
2022/02/14 10:12:45;;;;;;;7.40;3.30;;;12.20;86.90;;;;;;5070093;28;20471;-65
2022/02/14 10:15:13;;;;;;;6.23;3.17;;;12.10;88.50;;;;;;5069966;28;20455;-65
2022/02/14 10:17:43;;;;;;;5.63;3.40;;;12.00;87.20;;;;;;5069629;28;20443;-65
2022/02/14 10:20:11;;;;;;;6.77;3.30;;;12.00;88.00;;;;;;5069812;28;20473;-65
2022/02/14 10:23:00;;;;;;;6.20;3.27;;;12.00;88.70;;;;;;5069746;28;20853;-65
2022/02/14 10:25:33;;;;;;;6.37;2.80;;;12.00;89.80;;;;;;5069795;28;20443;-64
2022/02/14 10:28:31;;;;;;;7.90;3.40;;;12.10;89.60;;;;;;5069718;28;20520;-64
2022/02/14 10:31:00;;;;;;;6.57;3.70;;;12.10;89.10;;;;;;5007567;28;20433;-64
2022/02/14 10:33:47;;;;;;;6.10;3.07;;;12.10;90.00;;;;;;5056635;28;20459;-65
2022/02/14 10:36:14;;;;;;;8.97;4.10;;;12.20;90.10;;;;;;5069664;28;20451;-65
2022/02/14 10:38:42;;;;;;;6.40;3.30;;;12.10;90.20;;;;;;5069401;28;20913;-65
2022/02/14 10:41:12;;;;;;;9.30;4.00;;;12.30;90.60;;;;;;5069058;28;20442;-65
2022/02/14 10:43:40;;;;;;;7.37;3.90;;;12.50;90.50;;;;;;5068932;28;20479;-64
2022/02/14 10:46:07;;;;;;;7.00;2.87;;;12.60;90.80;;;;;;5069342;28;20543;-65
2022/02/14 10:48:36;;;;;;;9.00;3.20;;;12.70;90.70;;;;;;5069084;28;20562;-65
2022/02/14 10:51:04;;;;;;;5.47;3.03;;;12.80;90.60;;;;;;5069720;28;20516;-65
2022/02/14 10:53:43;;;;;;;7.67;4.47;;;13.00;90.80;;;;;;5069480;28;20983;-65
2022/02/14 10:56:11;;;;;;;5.60;3.00;;;13.20;90.60;;;;;;5069512;28;20451;-65
2022/02/14 10:58:37;;;;;;;7.67;3.03;;;13.30;90.40;;;;;;5069097;28;20972;-65
2022/02/14 11:01:04;;;;;;;5.90;2.47;;;13.40;91.10;;;;;;5071763;28;20486;-65
2022/02/14 11:03:31;;;;;;;6.03;3.00;;;13.40;91.30;;;;;;5074336;28;21028;-65
2022/02/14 11:05:59;;;;;;;9.20;2.80;;;13.50;91.30;;;;;;5074321;28;20449;-65
2022/02/14 11:08:27;;;;;;;4.43;2.70;;;13.50;92.10;;;;;;5073831;28;20852;-64
2022/02/14 11:10:57;;;;;;;5.97;2.47;;;13.50;91.90;;;;;;5073652;28;20443;-65
2022/02/14 11:13:27;;;;;;;5.20;2.40;;;13.50;92.30;;;;;;5069989;28;20489;-65
2022/02/14 11:15:55;;;;;;;4.63;2.23;;;13.60;92.50;;;;;;5069862;28;20447;-64
2022/02/14 11:18:30;;;;;;;6.40;3.17;;;13.50;92.90;;;;;;5070478;28;20502;-64
2022/02/14 11:20:59;;;;;;;6.60;2.83;;;13.50;93.60;;;;;;5073513;28;20794;-67
2022/02/14 11:23:30;;;;;;;5.23;1.93;;;13.50;93.90;;;;;;5072922;28;20493;-64
2022/02/14 11:26:05;;;;;;;5.90;2.70;;;13.60;94.00;;;;;;5073358;28;20537;-65
2022/02/14 11:28:37;;;;;;;6.33;2.77;;;13.80;94.40;;;;;;5072622;28;21082;-64
2022/02/14 11:31:09;;;;;;;5.83;2.33;;;14.00;94.00;;;;;;5073023;28;20443;-66
2022/02/14 11:33:37;;;;;;;5.30;2.27;;;14.20;93.70;;;;;;5072980;28;21018;-65
2022/02/14 11:36:06;;;;;;;4.53;2.07;;;14.30;93.70;;;;;;5073041;28;20450;-65
2022/02/14 11:38:44;;;;;;;5.33;2.30;;;14.20;93.90;;;;;;5072321;28;20991;-65
2022/02/14 11:41:27;;;;;;;6.23;2.67;;;14.20;94.40;;;;;;5072755;28;20450;-65
2022/02/14 11:43:55;;;;;;;3.97;2.00;;;14.30;93.80;;;;;;5072595;28;21067;-65
2022/02/14 11:46:27;;;;;;;3.93;2.33;;;14.20;94.40;;;;;;5072540;28;20489;-66
2022/02/14 11:49:15;;;;;;;8.13;2.27;;;14.30;94.10;;;;;;5072503;28;20914;-66
2022/02/14 11:51:44;;;;;;;4.50;1.70;;;14.30;94.60;;;;;;5072687;28;20443;-65
2022/02/14 11:54:32;;;;;;;5.47;2.10;;;14.20;94.70;;;;;;5072588;28;20459;-65
2022/02/14 11:57:23;;;;;;;3.37;1.93;;;14.20;95.30;;;;;;5072568;28;20450;-64
2022/02/14 11:59:51;;;;;;;5.43;2.00;;;14.20;95.50;;;;;;5072387;28;20493;-65
2022/02/14 12:02:28;;;;;;;5.17;2.70;;;14.30;95.70;;;;;;5072391;28;20479;-65
2022/02/14 12:04:55;;;;;;;4.63;2.00;;;14.10;95.30;;;;;;5072482;28;20458;-66
2022/02/14 12:07:32;;;;;;;2.90;2.00;;;14.00;95.70;;;;;;5072427;28;20474;-65
2022/02/14 12:10:21;;;;;;;4.30;2.00;;;14.00;95.60;;;;;;5072347;28;20466;-65
2022/02/14 12:13:14;;;;;;;4.17;1.83;;;13.90;95.80;;;;;;5072463;28;21010;-64
2022/02/14 12:21:19;;;;;;;5.00;1.97;;;13.70;96.60;;;;;;5072311;28;20422;-65
2022/02/14 12:23:48;;;;;;;3.60;1.83;;;13.70;96.70;;;;;;5071925;28;21247;-66
2022/02/14 12:26:17;;;;;;;7.23;2.33;;;13.50;96.40;;;;;;5072430;28;20845;-66
2022/02/14 12:28:47;;;;;;;4.90;2.13;;;13.50;97.00;;;;;;5077513;28;20474;-65
2022/02/14 12:31:14;;;;;;;3.10;1.80;;;13.40;97.30;;;;;;5084125;28;20459;-66
2022/02/14 12:33:42;;;;;;;6.83;2.10;;;13.40;97.30;;;;;;5084786;28;20477;-66
2022/02/14 12:36:11;;;;;;;6.93;2.33;;;13.50;97.20;;;;;;5086033;28;20831;-66
2022/02/14 12:38:40;;;;;;;6.60;2.73;;;13.50;97.00;;;;;;5084898;28;20545;-65
2022/02/14 12:41:09;;;;;;;2.73;1.40;;;13.70;96.90;;;;;;5087816;28;20451;-65
2022/02/14 12:43:38;;;;;;;6.30;1.97;;;13.60;96.90;;;;;;5089466;28;20574;-66
2022/02/14 12:46:09;;;;;;;6.30;2.10;;;13.60;97.40;;;;;;5090196;28;20923;-65
2022/02/14 12:48:38;;;;;;;5.73;2.03;;;13.60;97.30;;;;;;5090665;28;20548;-66
2022/02/14 12:51:06;;;;;;;5.80;2.27;;;13.60;97.50;;;;;;5091176;28;20438;-66
2022/02/14 12:53:35;;;;;;;4.47;1.77;;;13.70;97.60;;;;;;5091232;28;20459;-66
2022/02/14 12:56:16;;;;;;;3.83;1.73;;;13.80;97.50;;;;;;5091229;28;20533;-66
2022/02/14 12:58:51;;;;;;;5.43;1.70;;;13.70;97.80;;;;;;5090694;28;20530;-66
2022/02/14 13:01:22;;;;;;;5.53;1.90;;;13.60;98.10;;;;;;5094115;28;20438;-65
2022/02/14 13:03:54;;;;;;;4.37;1.73;;;13.50;98.20;;;;;;5091612;28;20531;-66
2022/02/14 13:06:21;;;;;;;5.47;2.67;;;13.40;98.40;;;;;;5088153;28;20486;-65